Terminal Aerodrome Forecast
Issued by NWS

Home | Current Version | Previous Version | Text Only | Print | Product List | Glossary On
Versions: 1 2 3 4 5 6 7 8 9 10 11 12 13 14 15 16
000
FTUS44 KBMX 251100
TAFEET
TAF
KEET 251120Z 2512/2612 20006KT P6SM SCT250
     FM251800 20011G18KT P6SM SCT040 BKN120
     FM260300 26006KT 4SM RA BKN025 OVC050
     FM260900 30010KT 6SM BR OVC025=

USA.gov is the U.S. government's official web portal to all federal, state and local government web resources and services.